Time;durP1;ratioP1;P1;durP2;ratioP2;P2;SDS_P1;SDS_P2;PMS_P1;PMS_P2;Temp;Humidity;BMP_temperature;BMP_pressure;BME280_temperature;BME280_humidity;BME280_pressure;Samples;Min_cycle;Max_cycle;Signal;HPM_P1;HPM_P2
2022/03/26 00:01:49;;;;;;;68.30;28.52;;;7.10;99.90;;;;;;5052804;28;20037;-61
2022/03/26 00:04:15;;;;;;;59.60;28.90;;;7.10;99.90;;;;;;5052428;28;20100;-60
2022/03/26 00:06:41;;;;;;;69.28;27.75;;;7.10;99.90;;;;;;5051657;28;20117;-60
2022/03/26 00:09:06;;;;;;;72.22;28.88;;;7.10;99.90;;;;;;5050714;28;20021;-60
2022/03/26 00:11:32;;;;;;;68.82;30.13;;;7.10;99.90;;;;;;5052926;28;20025;-58
2022/03/26 00:13:57;;;;;;;59.55;27.95;;;7.10;99.90;;;;;;5034134;28;20074;-58
2022/03/26 00:16:23;;;;;;;67.15;29.77;;;7.00;99.90;;;;;;5052910;28;20025;-59
2022/03/26 00:18:48;;;;;;;71.68;29.83;;;6.90;99.90;;;;;;5050627;28;20037;-62
2022/03/26 00:21:14;;;;;;;73.78;29.38;;;6.80;99.90;;;;;;5052176;28;20067;-62
2022/03/26 00:23:39;;;;;;;69.45;29.10;;;6.70;99.90;;;;;;5052453;28;20317;-61
2022/03/26 00:26:05;;;;;;;68.78;29.17;;;6.60;99.90;;;;;;5052554;28;20112;-62
2022/03/26 00:28:31;;;;;;;67.72;29.35;;;6.60;99.90;;;;;;5050526;28;20044;-61
2022/03/26 00:30:57;;;;;;;75.07;29.90;;;6.60;99.90;;;;;;5053355;28;20029;-60
2022/03/26 00:33:22;;;;;;;69.35;31.15;;;6.70;99.90;;;;;;5049083;28;20075;-61
2022/03/26 00:35:48;;;;;;;62.92;29.58;;;6.80;99.90;;;;;;5052276;28;20096;-61
2022/03/26 00:38:13;;;;;;;72.05;30.67;;;6.80;99.90;;;;;;5051210;28;20055;-62
2022/03/26 00:40:40;;;;;;;77.85;31.02;;;6.70;99.90;;;;;;5047631;28;20403;-62
2022/03/26 00:43:06;;;;;;;71.47;31.10;;;6.50;99.90;;;;;;5052186;28;20017;-61
2022/03/26 00:45:34;;;;;;;80.60;29.92;;;6.40;99.90;;;;;;5051700;28;20540;-61
2022/03/26 00:48:00;;;;;;;63.95;29.27;;;6.40;99.90;;;;;;5051567;28;20029;-61
2022/03/26 00:50:26;;;;;;;72.13;30.25;;;6.40;99.90;;;;;;5051824;28;20089;-61
2022/03/26 00:52:51;;;;;;;78.57;30.33;;;6.40;99.90;;;;;;5048342;28;20415;-61
2022/03/26 00:55:17;;;;;;;80.20;30.73;;;6.30;99.90;;;;;;5052192;28;20088;-60
2022/03/26 00:57:43;;;;;;;78.43;30.60;;;6.30;99.90;;;;;;5051764;28;20029;-60
2022/03/26 01:00:09;;;;;;;70.55;30.92;;;6.20;99.90;;;;;;5051826;28;20096;-61
2022/03/26 01:02:35;;;;;;;71.80;30.10;;;6.10;99.90;;;;;;5033744;28;20051;-61
2022/03/26 01:05:01;;;;;;;76.22;30.95;;;6.00;99.90;;;;;;5051468;28;20033;-61
2022/03/26 01:07:27;;;;;;;73.93;30.92;;;5.80;99.90;;;;;;5047107;28;20051;-61
2022/03/26 01:09:56;;;;;;;69.95;29.55;;;5.70;99.90;;;;;;5048701;28;20137;-61
2022/03/26 01:12:22;;;;;;;73.53;30.38;;;5.70;99.90;;;;;;5051810;28;20053;-60
2022/03/26 01:14:49;;;;;;;76.47;30.40;;;5.70;99.90;;;;;;5051418;28;20556;-62
2022/03/26 01:17:14;;;;;;;72.15;31.35;;;5.60;99.90;;;;;;5046395;28;20539;-60
2022/03/26 01:19:40;;;;;;;64.70;29.70;;;5.70;99.90;;;;;;5049262;28;20120;-61
2022/03/26 01:22:06;;;;;;;70.95;30.58;;;5.70;99.90;;;;;;5049301;28;20032;-61
2022/03/26 01:24:32;;;;;;;71.50;31.13;;;5.80;99.90;;;;;;5033337;28;20036;-60
2022/03/26 01:26:57;;;;;;;73.97;30.38;;;5.90;99.90;;;;;;5047894;28;21846;-61
2022/03/26 01:29:23;;;;;;;72.03;30.42;;;5.90;99.90;;;;;;5051416;28;20082;-62
2022/03/26 01:31:50;;;;;;;68.03;31.60;;;5.90;99.90;;;;;;5031607;28;20078;-60
2022/03/26 01:34:15;;;;;;;74.60;30.58;;;6.00;99.90;;;;;;5050813;28;20063;-62
2022/03/26 01:36:42;;;;;;;70.70;29.35;;;6.00;99.90;;;;;;5049234;28;20071;-62
2022/03/26 01:39:08;;;;;;;73.50;31.27;;;6.10;99.90;;;;;;5050750;28;20029;-62
2022/03/26 01:41:33;;;;;;;73.57;30.35;;;6.20;99.90;;;;;;5051340;28;20025;-61
2022/03/26 01:44:00;;;;;;;75.45;31.75;;;6.20;99.90;;;;;;5050931;28;20025;-61
2022/03/26 01:46:26;;;;;;;67.38;30.92;;;6.00;99.90;;;;;;5049318;28;20036;-61
2022/03/26 01:48:52;;;;;;;72.30;32.58;;;5.70;99.90;;;;;;5051082;28;20446;-61
2022/03/26 01:51:18;;;;;;;72.93;30.30;;;5.50;99.90;;;;;;5050990;28;20482;-62
2022/03/26 01:53:46;;;;;;;72.70;32.47;;;5.40;99.90;;;;;;5050233;28;20104;-61
2022/03/26 01:56:13;;;;;;;75.53;32.33;;;5.40;99.90;;;;;;5050319;28;20029;-61
2022/03/26 01:58:39;;;;;;;80.93;32.67;;;5.60;99.90;;;;;;5050636;28;20033;-60
2022/03/26 02:01:05;;;;;;;69.00;30.55;;;5.60;99.90;;;;;;5050324;28;20476;-60
2022/03/26 02:03:30;;;;;;;85.10;31.50;;;5.70;99.90;;;;;;5048523;28;20036;-57
2022/03/26 02:05:56;;;;;;;78.68;32.53;;;5.70;99.90;;;;;;5050558;28;20115;-59
2022/03/26 02:08:21;;;;;;;75.18;31.17;;;5.80;99.90;;;;;;5051049;28;20095;-61
2022/03/26 02:10:47;;;;;;;81.72;32.85;;;5.80;99.90;;;;;;5050274;28;20036;-59
2022/03/26 02:13:13;;;;;;;71.95;28.83;;;5.70;99.90;;;;;;5050612;28;20057;-60
2022/03/26 02:15:40;;;;;;;73.82;33.63;;;5.40;99.90;;;;;;5050053;28;20059;-58
2022/03/26 02:18:06;;;;;;;78.63;33.67;;;5.20;99.90;;;;;;5045185;28;20094;-58
2022/03/26 02:20:32;;;;;;;77.50;32.60;;;5.30;99.90;;;;;;5050599;28;20033;-60
2022/03/26 02:22:57;;;;;;;88.40;35.13;;;5.40;99.90;;;;;;5050439;28;20079;-61
2022/03/26 02:25:23;;;;;;;86.65;34.58;;;5.30;99.90;;;;;;5050322;28;20434;-61
2022/03/26 02:27:48;;;;;;;76.05;32.38;;;5.20;99.90;;;;;;5050361;28;20117;-60
2022/03/26 02:30:14;;;;;;;83.80;33.10;;;5.10;99.90;;;;;;5049848;28;20025;-60
2022/03/26 02:32:39;;;;;;;75.28;32.10;;;4.80;99.90;;;;;;5050701;28;20029;-60
2022/03/26 02:35:06;;;;;;;79.18;32.17;;;4.60;99.90;;;;;;5050172;28;20029;-59
2022/03/26 02:37:32;;;;;;;74.88;32.10;;;4.40;99.90;;;;;;5032883;28;20566;-61
2022/03/26 02:39:59;;;;;;;76.20;31.60;;;4.40;99.90;;;;;;5052197;28;20040;-61
2022/03/26 02:42:25;;;;;;;78.70;33.13;;;4.50;99.90;;;;;;5050490;28;20155;-60
2022/03/26 02:44:51;;;;;;;81.70;33.33;;;4.70;99.90;;;;;;5049542;28;20036;-60
2022/03/26 02:47:17;;;;;;;85.28;33.67;;;4.80;99.90;;;;;;5049890;28;20482;-61
2022/03/26 02:49:43;;;;;;;75.72;35.25;;;4.90;99.90;;;;;;5032852;28;20067;-59
2022/03/26 02:52:09;;;;;;;86.55;33.42;;;5.00;99.90;;;;;;5052749;28;20021;-60
2022/03/26 02:54:35;;;;;;;74.22;33.10;;;5.10;99.90;;;;;;5054360;28;20105;-60
2022/03/26 02:57:01;;;;;;;81.28;33.90;;;5.10;99.90;;;;;;5052959;28;20033;-61
2022/03/26 02:59:28;;;;;;;77.63;31.77;;;5.20;99.90;;;;;;5052022;28;20037;-60
2022/03/26 03:01:53;;;;;;;90.32;34.13;;;5.30;99.90;;;;;;5054282;28;20029;-61
2022/03/26 03:04:22;;;;;;;83.03;33.95;;;5.30;99.90;;;;;;5054089;28;20537;-61
2022/03/26 03:06:49;;;;;;;86.10;33.65;;;5.30;99.90;;;;;;5053831;28;20068;-61
2022/03/26 03:09:14;;;;;;;80.15;33.80;;;5.10;99.90;;;;;;5053351;28;20031;-61
2022/03/26 03:11:41;;;;;;;80.68;34.20;;;4.90;99.90;;;;;;5053413;28;20024;-61
2022/03/26 03:14:06;;;;;;;92.75;36.50;;;4.60;99.90;;;;;;5053153;28;20041;-61
2022/03/26 03:16:32;;;;;;;83.10;33.97;;;4.50;99.90;;;;;;5054126;28;20061;-61
2022/03/26 03:18:58;;;;;;;84.78;34.92;;;4.40;99.90;;;;;;5053083;28;20021;-61
2022/03/26 03:21:24;;;;;;;91.10;37.20;;;4.50;99.90;;;;;;5053559;28;20368;-59
2022/03/26 03:23:49;;;;;;;99.85;37.88;;;4.50;99.90;;;;;;5053785;28;20033;-60
2022/03/26 03:26:15;;;;;;;86.97;34.20;;;4.60;99.90;;;;;;5048207;28;20486;-59
2022/03/26 03:28:41;;;;;;;96.20;37.72;;;4.70;99.90;;;;;;5030410;28;20044;-61
2022/03/26 03:31:07;;;;;;;87.15;35.70;;;4.70;99.90;;;;;;5053378;28;20052;-60
2022/03/26 03:33:33;;;;;;;85.55;35.33;;;4.70;99.90;;;;;;5053543;28;20049;-59
2022/03/26 03:35:58;;;;;;;95.90;35.70;;;4.60;99.90;;;;;;5053491;28;20547;-60
2022/03/26 03:38:25;;;;;;;88.60;36.03;;;4.60;99.90;;;;;;5052993;28;20450;-61
2022/03/26 03:40:50;;;;;;;85.20;33.13;;;4.50;99.90;;;;;;5050692;28;20036;-61
2022/03/26 03:43:16;;;;;;;83.45;34.40;;;4.40;99.90;;;;;;5053432;28;20040;-60
2022/03/26 03:45:42;;;;;;;85.00;34.65;;;4.30;99.90;;;;;;5052307;28;20035;-61
2022/03/26 03:48:08;;;;;;;79.03;34.30;;;4.20;99.90;;;;;;5084097;22;20753;-58
2022/03/26 03:50:34;;;;;;;72.82;31.85;;;4.00;99.90;;;;;;5072462;28;20031;-58
2022/03/26 03:53:00;;;;;;;83.95;32.95;;;3.80;99.90;;;;;;5070452;28;20052;-60
2022/03/26 03:55:25;;;;;;;85.05;34.42;;;3.70;99.90;;;;;;5071903;28;20048;-60
2022/03/26 03:57:51;;;;;;;83.82;32.55;;;3.60;99.90;;;;;;5066991;28;20113;-58
2022/03/26 04:00:16;;;;;;;93.22;35.22;;;3.40;99.90;;;;;;5059371;28;20397;-56
2022/03/26 04:02:43;;;;;;;89.93;33.67;;;3.50;99.90;;;;;;5057884;28;20029;-55
2022/03/26 04:05:09;;;;;;;92.45;36.03;;;3.40;99.90;;;;;;5060603;28;20076;-57
2022/03/26 04:07:36;;;;;;;97.45;36.72;;;3.50;99.90;;;;;;5061835;28;20474;-58
2022/03/26 04:10:04;;;;;;;102.90;38.70;;;3.60;99.90;;;;;;5066918;28;20036;-60
2022/03/26 04:12:30;;;;;;;88.45;36.75;;;3.80;99.90;;;;;;5057579;28;20611;-59
2022/03/26 04:14:55;;;;;;;89.55;36.45;;;3.80;99.90;;;;;;5069031;28;20108;-60
2022/03/26 04:17:21;;;;;;;85.18;34.22;;;3.80;99.90;;;;;;5057789;28;20031;-59
2022/03/26 04:19:46;;;;;;;98.63;37.25;;;3.80;99.90;;;;;;5061919;28;20119;-59
2022/03/26 04:22:12;;;;;;;98.78;38.40;;;3.80;99.90;;;;;;5064642;28;20063;-58
2022/03/26 04:24:40;;;;;;;85.63;36.22;;;3.90;99.90;;;;;;5063890;28;20529;-60
2022/03/26 04:27:05;;;;;;;86.18;36.17;;;4.00;99.90;;;;;;5060645;28;20060;-62
2022/03/26 04:29:31;;;;;;;96.95;36.72;;;4.10;99.90;;;;;;5067269;28;20062;-58
2022/03/26 04:31:57;;;;;;;97.32;36.22;;;4.20;99.90;;;;;;5061505;28;20027;-59
2022/03/26 04:34:22;;;;;;;89.65;34.40;;;4.20;99.90;;;;;;5047644;28;20477;-58
2022/03/26 04:36:48;;;;;;;96.85;37.65;;;4.20;99.90;;;;;;5064936;28;20025;-62
2022/03/26 04:39:14;;;;;;;90.82;35.72;;;4.20;99.90;;;;;;5058774;28;20036;-59
2022/03/26 04:41:39;;;;;;;90.88;35.83;;;4.20;99.90;;;;;;5053144;28;20033;-60
2022/03/26 04:44:05;;;;;;;86.60;35.05;;;4.20;99.90;;;;;;5059925;28;20061;-54
2022/03/26 04:46:32;;;;;;;90.97;36.40;;;4.20;99.90;;;;;;5057370;28;20037;-61
2022/03/26 04:48:58;;;;;;;90.13;36.88;;;4.10;99.90;;;;;;5058755;28;20492;-61
2022/03/26 04:51:24;;;;;;;88.85;36.75;;;4.20;99.90;;;;;;5057763;28;20021;-60
2022/03/26 04:53:49;;;;;;;84.28;33.90;;;4.20;99.90;;;;;;5064858;28;20025;-61
2022/03/26 04:56:15;;;;;;;83.05;34.67;;;4.20;99.90;;;;;;5066587;28;20029;-59
2022/03/26 04:58:40;;;;;;;82.82;34.65;;;4.20;99.90;;;;;;5065229;28;20025;-57
2022/03/26 05:01:07;;;;;;;79.70;32.40;;;4.10;99.90;;;;;;5063107;28;20083;-60
2022/03/26 05:03:33;;;;;;;82.78;32.75;;;3.80;99.90;;;;;;5059459;28;20470;-59
2022/03/26 05:05:58;;;;;;;85.60;34.95;;;3.50;99.90;;;;;;5057680;28;20028;-58
2022/03/26 05:08:24;;;;;;;91.53;32.38;;;3.30;99.90;;;;;;5059844;28;20455;-61
2022/03/26 05:10:49;;;;;;;87.93;34.72;;;3.20;99.90;;;;;;5053930;28;20025;-58
2022/03/26 05:13:15;;;;;;;84.72;34.03;;;3.10;99.90;;;;;;5062102;28;20466;-59
2022/03/26 05:15:41;;;;;;;87.65;34.65;;;3.10;99.90;;;;;;5068413;28;20462;-61
2022/03/26 05:18:06;;;;;;;106.00;40.00;;;3.10;99.90;;;;;;5065866;28;20067;-61
2022/03/26 05:20:32;;;;;;;101.07;38.50;;;3.10;99.90;;;;;;5060415;28;20509;-60
2022/03/26 05:22:58;;;;;;;106.45;40.85;;;3.00;99.90;;;;;;5059245;28;20017;-60
2022/03/26 05:25:23;;;;;;;98.40;39.63;;;3.10;99.90;;;;;;5060609;28;20056;-61
2022/03/26 05:27:52;;;;;;;115.78;40.75;;;3.00;99.90;;;;;;5061710;28;20019;-58
2022/03/26 05:30:19;;;;;;;93.68;37.15;;;2.90;99.90;;;;;;5058004;28;20544;-55
2022/03/26 05:32:45;;;;;;;94.50;37.28;;;3.00;99.90;;;;;;5058459;28;20064;-58
2022/03/26 05:35:13;;;;;;;107.18;39.22;;;3.10;99.90;;;;;;5045072;28;20044;-59
2022/03/26 05:37:43;;;;;;;102.82;39.47;;;3.20;99.90;;;;;;5060058;28;20451;-58
2022/03/26 05:40:10;;;;;;;91.45;37.17;;;3.20;99.90;;;;;;5058528;28;20517;-61
2022/03/26 05:42:36;;;;;;;108.22;37.55;;;3.10;99.90;;;;;;5063621;28;20025;-58
2022/03/26 05:45:03;;;;;;;90.65;36.30;;;3.20;99.90;;;;;;5056547;28;20551;-56
2022/03/26 05:47:30;;;;;;;98.28;38.33;;;3.20;99.90;;;;;;5058248;28;20133;-58
2022/03/26 05:49:55;;;;;;;104.03;38.42;;;3.30;99.90;;;;;;5053339;28;20541;-59
2022/03/26 05:52:21;;;;;;;103.05;38.42;;;3.30;99.90;;;;;;5055735;28;20112;-60
2022/03/26 05:54:46;;;;;;;112.20;39.63;;;3.30;99.90;;;;;;5057466;28;20040;-56
2022/03/26 05:57:13;;;;;;;106.97;39.60;;;3.50;99.90;;;;;;5063076;28;20058;-53
2022/03/26 05:59:39;;;;;;;110.47;40.13;;;3.50;99.90;;;;;;5062502;28;20131;-56
2022/03/26 06:02:04;;;;;;;92.30;38.13;;;3.60;99.90;;;;;;5060692;28;20502;-56
2022/03/26 06:04:30;;;;;;;94.82;35.67;;;3.50;99.90;;;;;;5059703;28;20443;-59
2022/03/26 06:06:56;;;;;;;85.75;35.63;;;3.50;99.90;;;;;;5057735;28;20090;-58
2022/03/26 06:09:22;;;;;;;91.93;36.13;;;3.50;99.90;;;;;;5051230;28;20025;-58
2022/03/26 06:11:48;;;;;;;86.25;36.22;;;3.50;99.90;;;;;;5051476;28;20071;-59
2022/03/26 06:14:15;;;;;;;100.65;39.17;;;3.50;99.90;;;;;;5058094;28;20036;-58
2022/03/26 06:16:41;;;;;;;87.13;35.15;;;3.50;99.90;;;;;;5068442;28;20016;-60
2022/03/26 06:19:06;;;;;;;98.32;36.63;;;3.50;99.90;;;;;;5057528;28;20043;-57
2022/03/26 06:21:34;;;;;;;96.63;38.65;;;3.50;99.90;;;;;;5054234;28;20025;-57
2022/03/26 06:24:00;;;;;;;95.10;38.85;;;3.50;99.90;;;;;;5053727;28;20020;-59
2022/03/26 06:26:26;;;;;;;103.50;41.03;;;3.60;99.90;;;;;;5057251;28;21398;-60
2022/03/26 06:28:52;;;;;;;90.40;39.60;;;3.70;99.90;;;;;;5057382;28;20036;-57
2022/03/26 06:31:18;;;;;;;97.82;38.97;;;3.90;99.90;;;;;;5053941;28;20186;-61
2022/03/26 06:33:43;;;;;;;93.95;37.63;;;4.00;99.90;;;;;;5056487;28;20565;-56
2022/03/26 06:36:09;;;;;;;93.05;38.53;;;4.10;99.90;;;;;;5062261;28;20063;-58
2022/03/26 06:38:38;;;;;;;101.18;40.22;;;4.20;99.90;;;;;;5064242;28;20025;-58
2022/03/26 06:41:06;;;;;;;93.35;37.35;;;4.30;99.90;;;;;;5054261;28;20078;-58
2022/03/26 06:43:31;;;;;;;89.43;35.10;;;4.40;99.90;;;;;;5057472;28;20174;-59
2022/03/26 06:45:57;;;;;;;97.18;37.58;;;4.50;99.90;;;;;;5059301;28;20171;-56
2022/03/26 06:48:23;;;;;;;91.82;37.10;;;4.50;99.90;;;;;;5064215;28;20117;-57
2022/03/26 06:50:49;;;;;;;89.82;36.13;;;4.60;99.90;;;;;;5050850;28;20017;-60
2022/03/26 06:53:15;;;;;;;94.53;37.40;;;4.80;99.90;;;;;;5050644;28;20422;-60
2022/03/26 06:55:41;;;;;;;91.57;38.17;;;4.80;99.90;;;;;;5051591;28;20036;-60
2022/03/26 06:58:07;;;;;;;100.63;39.13;;;5.00;99.90;;;;;;5065397;28;20048;-56
2022/03/26 07:00:32;;;;;;;91.88;38.33;;;5.10;99.90;;;;;;5071529;28;20047;-61
2022/03/26 07:02:58;;;;;;;88.10;36.47;;;5.20;99.90;;;;;;5053569;28;20398;-60
2022/03/26 07:05:23;;;;;;;83.72;34.42;;;5.40;99.90;;;;;;5060815;28;20512;-60
2022/03/26 07:07:49;;;;;;;73.70;32.15;;;5.50;99.90;;;;;;5053328;28;20040;-61
2022/03/26 07:10:14;;;;;;;78.22;34.25;;;5.60;99.90;;;;;;5061781;28;20398;-62
2022/03/26 07:12:40;;;;;;;76.10;33.72;;;5.80;99.90;;;;;;5056285;28;20048;-61
2022/03/26 07:15:07;;;;;;;71.85;32.42;;;5.90;99.90;;;;;;5062384;28;20103;-62
2022/03/26 07:17:32;;;;;;;76.57;31.23;;;6.00;99.90;;;;;;5063849;28;20043;-61
2022/03/26 07:19:58;;;;;;;87.28;34.05;;;6.10;99.90;;;;;;5055893;28;20028;-59
2022/03/26 07:22:23;;;;;;;87.22;35.25;;;6.20;99.90;;;;;;5060671;28;20082;-59
2022/03/26 07:24:49;;;;;;;75.47;33.33;;;6.40;99.90;;;;;;5067648;28;20044;-59
2022/03/26 07:27:14;;;;;;;75.75;34.55;;;6.40;99.90;;;;;;5059234;28;20028;-60
2022/03/26 07:29:40;;;;;;;69.65;31.58;;;6.60;99.90;;;;;;5041780;28;20032;-62
2022/03/26 07:32:07;;;;;;;88.88;34.60;;;6.70;99.90;;;;;;5054698;28;20163;-59
2022/03/26 07:34:33;;;;;;;86.45;34.67;;;6.80;99.90;;;;;;5052317;28;20028;-58
2022/03/26 07:37:00;;;;;;;79.18;32.88;;;6.90;99.90;;;;;;5052804;28;20032;-62
2022/03/26 07:39:26;;;;;;;78.93;33.65;;;7.00;99.90;;;;;;5063830;28;20029;-61
2022/03/26 07:41:52;;;;;;;72.20;32.72;;;7.10;99.90;;;;;;5053844;28;20029;-61
2022/03/26 07:44:17;;;;;;;83.25;34.95;;;7.20;99.90;;;;;;5054909;28;20479;-61
2022/03/26 07:46:43;;;;;;;72.57;34.28;;;7.30;99.90;;;;;;5053772;28;20035;-60
2022/03/26 07:49:09;;;;;;;74.60;31.85;;;7.40;99.90;;;;;;5040261;28;20029;-62
2022/03/26 07:51:35;;;;;;;70.85;34.28;;;7.50;99.90;;;;;;5059958;28;20055;-62
2022/03/26 07:54:00;;;;;;;73.03;33.58;;;7.60;99.90;;;;;;5057285;28;20037;-62
2022/03/26 07:56:26;;;;;;;81.80;35.28;;;7.70;99.90;;;;;;5061090;28;20151;-61
2022/03/26 07:58:51;;;;;;;82.95;34.15;;;7.80;99.90;;;;;;5059154;28;20033;-61
2022/03/26 08:01:17;;;;;;;82.65;34.78;;;7.90;99.90;;;;;;5066417;28;20021;-61
2022/03/26 08:03:42;;;;;;;81.53;35.08;;;8.00;99.90;;;;;;5062273;28;20568;-61
2022/03/26 08:06:08;;;;;;;79.63;37.42;;;8.10;99.90;;;;;;5062990;28;20544;-61
2022/03/26 08:08:34;;;;;;;76.57;35.88;;;8.20;99.90;;;;;;5058025;28;21042;-61
2022/03/26 08:11:00;;;;;;;75.82;36.45;;;8.40;99.90;;;;;;5061814;28;20389;-61
2022/03/26 08:13:25;;;;;;;81.10;36.00;;;8.50;99.90;;;;;;5069672;28;20103;-60
2022/03/26 08:15:51;;;;;;;83.70;35.30;;;8.50;99.90;;;;;;5059170;28;20501;-61
2022/03/26 08:18:16;;;;;;;80.63;36.35;;;8.70;99.90;;;;;;5054329;28;20805;-61
2022/03/26 08:20:43;;;;;;;78.28;36.15;;;8.80;99.90;;;;;;5057967;28;20037;-61
2022/03/26 08:23:09;;;;;;;75.85;34.50;;;8.90;99.90;;;;;;5057246;28;20425;-58
2022/03/26 08:28:19;;;;;;;67.95;34.15;;;9.20;99.90;;;;;;5055396;28;20525;-61
2022/03/26 08:30:44;;;;;;;82.32;35.08;;;9.30;99.90;;;;;;5058614;28;20028;-60
2022/03/26 08:33:10;;;;;;;75.28;34.88;;;9.40;99.90;;;;;;5063638;28;20033;-61
2022/03/26 08:35:38;;;;;;;71.85;34.67;;;9.40;99.90;;;;;;5062658;28;20641;-61
2022/03/26 08:38:04;;;;;;;82.85;36.45;;;9.60;99.90;;;;;;5066297;28;20027;-61
2022/03/26 08:40:30;;;;;;;70.65;34.10;;;9.70;99.90;;;;;;5067946;28;20020;-62
2022/03/26 08:42:58;;;;;;;80.25;36.90;;;9.80;99.90;;;;;;5066115;28;20082;-61
2022/03/26 08:45:25;;;;;;;74.22;36.33;;;9.90;99.90;;;;;;5061818;28;20041;-60
2022/03/26 08:47:51;;;;;;;90.28;36.10;;;10.10;99.90;;;;;;5068746;28;20446;-62
2022/03/26 08:50:17;;;;;;;79.95;36.05;;;10.30;99.90;;;;;;5068745;28;20048;-62
2022/03/26 08:52:43;;;;;;;90.25;36.90;;;10.30;99.90;;;;;;5058913;28;20119;-61
2022/03/26 08:55:08;;;;;;;78.68;36.65;;;10.40;99.90;;;;;;5063041;28;20100;-62
2022/03/26 08:57:34;;;;;;;77.97;34.60;;;10.60;99.90;;;;;;5066795;28;20029;-61
2022/03/26 09:00:00;;;;;;;77.03;37.10;;;10.80;99.90;;;;;;5058655;28;20032;-61
2022/03/26 09:02:26;;;;;;;85.68;34.03;;;11.00;99.90;;;;;;5066593;28;20036;-61
2022/03/26 09:04:52;;;;;;;82.63;35.03;;;11.10;99.90;;;;;;5058662;28;20028;-62
2022/03/26 09:07:18;;;;;;;75.63;35.15;;;11.30;99.90;;;;;;5068212;28;20028;-60
2022/03/26 09:09:43;;;;;;;71.93;33.88;;;11.40;99.90;;;;;;5068363;28;20039;-62
2022/03/26 09:12:09;;;;;;;85.93;35.63;;;11.50;99.90;;;;;;5064556;28;20017;-60
2022/03/26 09:14:35;;;;;;;83.05;34.15;;;11.70;99.90;;;;;;5062007;28;20486;-62
2022/03/26 09:17:00;;;;;;;73.80;34.10;;;11.90;99.90;;;;;;5064478;28;20040;-62
2022/03/26 09:19:26;;;;;;;74.97;32.17;;;11.90;99.90;;;;;;5063349;28;20033;-62
2022/03/26 09:21:52;;;;;;;74.50;34.35;;;12.10;99.90;;;;;;5066138;28;20032;-62
2022/03/26 09:24:17;;;;;;;73.47;33.92;;;12.10;99.90;;;;;;5066863;28;20028;-63
2022/03/26 09:26:43;;;;;;;76.18;33.13;;;12.30;99.90;;;;;;5064816;28;20033;-62
2022/03/26 09:29:09;;;;;;;76.25;33.83;;;12.40;99.90;;;;;;5065293;28;20115;-61
2022/03/26 09:31:35;;;;;;;72.30;34.60;;;12.60;99.90;;;;;;5059437;28;20401;-62
2022/03/26 09:34:00;;;;;;;77.45;34.13;;;12.60;99.90;;;;;;5062358;28;20032;-61
2022/03/26 09:36:26;;;;;;;78.32;36.45;;;12.70;99.90;;;;;;5059125;28;20036;-60
2022/03/26 09:38:52;;;;;;;83.18;36.25;;;12.80;99.90;;;;;;5062439;28;20037;-60
2022/03/26 09:41:19;;;;;;;75.55;35.75;;;13.00;99.90;;;;;;5065916;28;20021;-60
2022/03/26 09:43:45;;;;;;;74.65;34.38;;;13.20;99.90;;;;;;5064889;28;20095;-61
2022/03/26 09:46:11;;;;;;;72.07;35.55;;;13.40;99.90;;;;;;5063627;28;20039;-62
2022/03/26 09:48:37;;;;;;;74.70;35.33;;;13.70;99.90;;;;;;5062597;28;20025;-62
2022/03/26 09:51:03;;;;;;;83.20;34.80;;;13.80;99.90;;;;;;5061126;28;20025;-61
2022/03/26 09:53:29;;;;;;;75.28;34.95;;;14.10;99.90;;;;;;5067032;28;20036;-61
2022/03/26 09:55:55;;;;;;;70.38;36.03;;;14.30;99.90;;;;;;5062624;28;20060;-61
2022/03/26 09:58:21;;;;;;;73.75;34.38;;;14.40;99.90;;;;;;5062682;28;20473;-61
2022/03/26 10:00:47;;;;;;;74.65;34.70;;;14.60;99.90;;;;;;5062305;28;20032;-61
2022/03/26 10:03:13;;;;;;;77.88;34.72;;;14.80;99.90;;;;;;5052122;28;20382;-61
2022/03/26 10:05:39;;;;;;;75.13;32.00;;;15.00;99.90;;;;;;5060973;28;20028;-61
2022/03/26 10:08:21;;;;;;;73.00;33.15;;;15.20;99.90;;;;;;5063033;28;20021;-62
2022/03/26 10:10:47;;;;;;;71.13;33.20;;;15.30;99.90;;;;;;5052038;28;20112;-61
2022/03/26 10:13:31;;;;;;;74.88;33.45;;;15.50;99.90;;;;;;5051787;28;20028;-62
2022/03/26 10:16:08;;;;;;;76.35;35.60;;;15.50;99.90;;;;;;5056693;28;20466;-60
2022/03/26 10:18:37;;;;;;;72.05;33.10;;;15.30;99.90;;;;;;5057146;28;20043;-60
2022/03/26 10:21:04;;;;;;;72.88;33.75;;;15.40;99.90;;;;;;5055777;28;20075;-61
2022/03/26 10:23:30;;;;;;;77.40;35.95;;;15.50;99.90;;;;;;5062323;28;20021;-61
2022/03/26 10:26:09;;;;;;;77.95;35.22;;;15.60;99.90;;;;;;5055833;28;20434;-60
2022/03/26 10:28:35;;;;;;;67.75;31.80;;;15.80;99.90;;;;;;5062490;28;20025;-62
2022/03/26 10:34:20;;;;;;;75.97;36.13;;;16.30;99.90;;;;;;5050664;28;20044;-60
2022/03/26 10:36:47;;;;;;;75.88;36.03;;;16.70;99.90;;;;;;5065444;28;20024;-62
2022/03/26 10:39:25;;;;;;;77.43;34.75;;;16.90;99.90;;;;;;5057953;28;20029;-62
2022/03/26 10:41:55;;;;;;;76.90;37.90;;;17.20;99.90;;;;;;5060958;28;20575;-61
2022/03/26 10:44:30;;;;;;;72.60;35.20;;;17.30;99.90;;;;;;5056378;28;20052;-58
2022/03/26 10:47:04;;;;;;;79.10;39.35;;;17.10;99.90;;;;;;5065156;28;20025;-61
2022/03/26 10:49:32;;;;;;;77.00;37.30;;;17.20;99.90;;;;;;5056634;28;20032;-60
2022/03/26 10:52:10;;;;;;;77.55;35.05;;;17.20;99.90;;;;;;5059307;28;20032;-60
2022/03/26 10:54:36;;;;;;;64.65;32.85;;;17.60;99.90;;;;;;5061283;28;20025;-62
2022/03/26 10:57:02;;;;;;;73.80;33.65;;;17.90;99.90;;;;;;5057452;28;20029;-59
2022/03/26 10:59:28;;;;;;;71.78;36.03;;;17.90;99.90;;;;;;5061154;28;20032;-61
2022/03/26 11:01:54;;;;;;;77.03;34.30;;;17.90;99.90;;;;;;5062269;28;20111;-61
2022/03/26 11:04:21;;;;;;;69.90;34.45;;;17.70;99.90;;;;;;5056316;28;20108;-60
2022/03/26 11:06:47;;;;;;;66.28;34.45;;;17.80;99.90;;;;;;5065681;28;20029;-62
2022/03/26 11:09:15;;;;;;;72.60;34.38;;;17.70;99.90;;;;;;5062100;28;20352;-61
2022/03/26 11:11:42;;;;;;;62.40;32.50;;;17.80;99.90;;;;;;5052262;28;20013;-59
2022/03/26 11:14:30;;;;;;;68.90;35.80;;;17.90;99.90;;;;;;5058648;28;20420;-62
2022/03/26 11:17:38;;;;;;;67.25;34.40;;;18.40;99.90;;;;;;5055384;28;20029;-62
2022/03/26 11:20:22;;;;;;;64.97;30.13;;;18.30;99.10;;;;;;5019680;28;20438;-62
2022/03/26 11:23:09;;;;;;;57.60;29.05;;;18.30;99.70;;;;;;5063093;28;20028;-60
2022/03/26 11:25:57;;;;;;;58.28;27.42;;;18.60;97.90;;;;;;5058892;28;20024;-59
2022/03/26 11:28:32;;;;;;;67.32;33.47;;;18.80;98.70;;;;;;5058689;28;20074;-62
2022/03/26 11:31:16;;;;;;;65.82;32.90;;;18.80;98.50;;;;;;5069327;28;20029;-61
2022/03/26 11:33:42;;;;;;;66.90;34.58;;;19.10;97.70;;;;;;5056323;28;20032;-62
2022/03/26 11:36:11;;;;;;;57.30;29.75;;;18.80;97.40;;;;;;5059335;28;20036;-61
2022/03/26 11:38:38;;;;;;;57.80;28.38;;;18.90;97.70;;;;;;5059291;28;20104;-61
2022/03/26 11:41:05;;;;;;;61.38;32.00;;;19.10;97.00;;;;;;5063559;28;20028;-61
2022/03/26 11:43:43;;;;;;;63.10;31.98;;;18.80;96.70;;;;;;5055159;28;20021;-60
2022/03/26 11:52:13;;;;;;;64.95;30.95;;;19.20;97.00;;;;;;5065471;28;20171;-62
2022/03/26 11:54:39;;;;;;;67.82;31.60;;;19.40;96.50;;;;;;5056823;28;20047;-60
2022/03/26 11:57:15;;;;;;;64.00;31.27;;;19.60;96.00;;;;;;5070300;28;20048;-61
2022/03/26 11:59:44;;;;;;;70.93;31.38;;;19.60;95.70;;;;;;5059059;28;20103;-60
2022/03/26 12:02:23;;;;;;;61.55;30.33;;;19.30;94.70;;;;;;5064283;28;20036;-60
2022/03/26 12:04:57;;;;;;;56.47;28.35;;;19.80;96.00;;;;;;5064704;28;20059;-60
2022/03/26 12:07:29;;;;;;;67.55;32.40;;;20.00;95.20;;;;;;5059590;28;20033;-62
2022/03/26 12:10:12;;;;;;;69.28;31.67;;;20.10;94.20;;;;;;5058085;28;20060;-61
2022/03/26 12:12:50;;;;;;;62.85;30.25;;;19.80;94.30;;;;;;5066153;28;20036;-61
2022/03/26 12:15:16;;;;;;;57.50;28.50;;;19.90;96.00;;;;;;5062147;28;20020;-61
2022/03/26 12:17:49;;;;;;;57.95;29.40;;;20.30;94.50;;;;;;5060107;28;20035;-61
2022/03/26 12:20:31;;;;;;;61.67;29.25;;;20.40;94.40;;;;;;5053990;28;20421;-61
2022/03/26 12:23:06;;;;;;;61.72;31.40;;;20.50;93.50;;;;;;5060031;28;20031;-60
2022/03/26 12:25:32;;;;;;;64.95;32.38;;;20.30;94.50;;;;;;5065272;28;20381;-60
2022/03/26 12:27:58;;;;;;;63.90;31.20;;;20.30;93.80;;;;;;5065477;28;20055;-60
2022/03/26 12:30:25;;;;;;;63.13;29.80;;;20.10;93.60;;;;;;5067309;28;20032;-60
2022/03/26 12:32:51;;;;;;;67.70;33.45;;;20.40;93.40;;;;;;5067411;28;20020;-61
2022/03/26 12:35:17;;;;;;;57.03;30.05;;;20.60;93.10;;;;;;5063030;28;20043;-60
2022/03/26 12:37:43;;;;;;;60.42;31.27;;;20.60;93.00;;;;;;5070764;28;20638;-61
2022/03/26 12:40:11;;;;;;;60.35;29.23;;;20.70;91.70;;;;;;5065995;28;20497;-60
2022/03/26 12:42:37;;;;;;;56.95;31.33;;;20.60;92.00;;;;;;5061590;28;20017;-58
2022/03/26 12:45:14;;;;;;;59.90;30.48;;;20.50;91.70;;;;;;5069162;28;20481;-60